createdAt,value
2022-09-17T00:02:30.232Z,99129.03
2022-09-17T00:06:32.502Z,99132.50
2022-09-17T00:10:37.999Z,99133.38
2022-09-17T00:14:40.704Z,99139.44
2022-09-17T00:18:42.066Z,99131.66
2022-09-17T00:22:43.445Z,99136.84
2022-09-17T00:26:45.016Z,99129.94
2022-09-17T00:30:46.681Z,99132.56
2022-09-17T00:34:55.916Z,99134.28
2022-09-17T00:38:59.210Z,99131.72
2022-09-17T00:43:06.962Z,99120.47
2022-09-17T00:47:12.645Z,99120.50
2022-09-17T00:51:15.626Z,99117.91
2022-09-17T00:55:22.977Z,99125.66
2022-09-17T00:59:24.828Z,99126.56
2022-09-17T01:03:26.671Z,99129.13
2022-09-17T01:07:39.049Z,99134.31
2022-09-17T01:11:46.621Z,99123.97
2022-09-17T01:15:51.488Z,99123.09
2022-09-17T01:20:02.157Z,99134.31
2022-09-17T01:24:22.331Z,99139.50
2022-09-17T01:28:23.900Z,99139.50
2022-09-17T01:32:36.814Z,99143.78
2022-09-17T01:37:03.141Z,99153.28
2022-09-17T01:41:07.638Z,99153.25
2022-09-17T01:45:19.735Z,99150.63
2022-09-17T01:49:22.581Z,99154.94
2022-09-17T01:53:31.993Z,99154.94
2022-09-17T01:57:36.846Z,99154.06
2022-09-17T02:01:42.011Z,99158.38
2022-09-17T02:05:56.592Z,99154.91
2022-09-17T02:09:57.991Z,99153.19
2022-09-17T02:14:00.320Z,99143.69
2022-09-17T02:18:38.130Z,99156.59
2022-09-17T02:22:49.316Z,99160.09
2022-09-17T02:27:00.720Z,99160.91
2022-09-17T02:31:09.130Z,99161.78
2022-09-17T02:35:13.893Z,99160.03
2022-09-17T02:39:15.209Z,99152.28
2022-09-17T02:43:27.041Z,99151.44
2022-09-17T02:47:28.304Z,99156.59
2022-09-17T02:51:35.322Z,99161.81
2022-09-17T02:55:46.222Z,99162.69
2022-09-17T02:59:52.927Z,99154.09
2022-09-17T03:04:02.044Z,99159.28
2022-09-17T03:08:03.466Z,99154.13
2022-09-17T03:12:05.950Z,99154.16
2022-09-17T03:16:07.692Z,99151.53
2022-09-17T03:20:09.421Z,99174.84
2022-09-17T03:24:11.677Z,99172.25
2022-09-17T03:28:13.111Z,99177.41
2022-09-17T03:32:14.489Z,99175.72
2022-09-17T03:36:15.934Z,99175.72
2022-09-17T03:40:17.380Z,99180.91
2022-09-17T03:44:19.470Z,99180.88
2022-09-17T03:48:20.863Z,99192.09
2022-09-17T03:52:22.186Z,99180.03
2022-09-17T03:56:23.658Z,99187.81
2022-09-17T04:00:32.138Z,99181.75
2022-09-17T04:04:33.474Z,99180.88
2022-09-17T04:08:43.050Z,99196.41
2022-09-17T04:12:44.475Z,99191.22
2022-09-17T04:16:53.557Z,99200.72
2022-09-17T04:20:54.973Z,99199.88
2022-09-17T04:24:56.347Z,99199.84
2022-09-17T04:28:57.681Z,99205.91
2022-09-17T04:32:59.077Z,99203.34
2022-09-17T04:37:00.395Z,99203.34
2022-09-17T04:41:01.893Z,99205.03
2022-09-17T04:45:03.358Z,99201.59
2022-09-17T04:49:04.631Z,99214.53
2022-09-17T04:53:06.093Z,99217.13
2022-09-17T04:57:07.526Z,99220.59
2022-09-17T05:01:08.902Z,99220.59
2022-09-17T05:05:10.321Z,99224.88
2022-09-17T05:09:11.739Z,99223.16
2022-09-17T05:13:13.067Z,99224.91
2022-09-17T05:17:14.521Z,99218.88
2022-09-17T05:21:16.417Z,99232.66
2022-09-17T05:25:18.973Z,99234.41
2022-09-17T05:29:20.445Z,99236.09
2022-09-17T05:33:21.899Z,99234.38
2022-09-17T05:37:23.164Z,99237.81
2022-09-17T05:41:24.658Z,99243.88
2022-09-17T05:45:26.028Z,99243.00
2022-09-17T05:49:34.243Z,99258.53
2022-09-17T05:53:35.566Z,99250.78
2022-09-17T05:57:43.249Z,99255.09
2022-09-17T06:01:44.982Z,99259.41
2022-09-17T06:05:58.144Z,99262.84
2022-09-17T06:10:06.081Z,99266.31
2022-09-17T06:14:08.541Z,99269.72
2022-09-17T06:28:35.775Z,99260.19
2022-09-17T06:32:46.171Z,99262.69
2022-09-17T06:36:48.891Z,99262.56
2022-09-17T06:40:57.177Z,99256.28
2022-09-17T06:45:09.333Z,99264.63
2022-09-17T06:49:20.219Z,99272.00
2022-09-17T06:53:28.559Z,99263.03
2022-09-17T06:57:31.864Z,99267.75
2022-09-17T07:05:51.414Z,99276.41
2022-09-17T07:09:53.704Z,99269.75
2022-09-17T07:13:56.394Z,99284.06
2022-09-17T07:17:57.723Z,99283.63
2022-09-17T07:21:59.237Z,99282.88
2022-09-17T07:26:02.251Z,99283.06
2022-09-17T07:30:05.760Z,99291.94
2022-09-17T07:34:07.024Z,99289.50
2022-09-17T07:38:15.673Z,99298.03
2022-09-17T07:42:17.148Z,99298.94
2022-09-17T07:46:19.678Z,99292.38
2022-09-17T07:50:34.128Z,99290.66
2022-09-17T07:54:37.247Z,99293.88
2022-09-17T07:58:45.152Z,99284.19
2022-09-17T08:02:59.333Z,99293.03
2022-09-17T08:07:00.741Z,99305.16
2022-09-17T08:11:03.179Z,99297.78
2022-09-17T08:15:11.617Z,99299.41
2022-09-17T08:19:12.956Z,99295.94
2022-09-17T08:23:14.340Z,99296.72
2022-09-17T08:27:15.733Z,99298.53
2022-09-17T08:31:25.147Z,99303.22
2022-09-17T08:35:27.968Z,99309.63
2022-09-17T08:39:29.603Z,99303.81
2022-09-17T08:43:33.461Z,99307.44
2022-09-17T08:47:39.060Z,99309.97
2022-09-17T08:51:51.537Z,99324.88
2022-09-17T08:56:02.593Z,99316.59
2022-09-17T09:00:09.861Z,99318.97
2022-09-17T09:04:19.984Z,99320.75
2022-09-17T09:08:45.525Z,99323.34
2022-09-17T09:12:47.125Z,99312.25
2022-09-17T09:16:49.548Z,99307.59
2022-09-17T09:20:56.196Z,99316.25
2022-09-17T09:25:10.932Z,99311.53
2022-09-17T09:29:39.799Z,99313.75
2022-09-17T09:33:47.597Z,99312.34
2022-09-17T09:38:19.757Z,99304.81
2022-09-17T09:42:24.833Z,99305.09
2022-09-17T09:46:29.041Z,99305.63
2022-09-17T09:51:06.257Z,99302.13
2022-09-17T09:55:25.867Z,99317.00
2022-09-17T09:59:34.237Z,99306.97
2022-09-17T10:03:40.108Z,99319.28
2022-09-17T10:07:45.320Z,99315.22
2022-09-17T10:12:13.273Z,99320.78
2022-09-17T10:16:22.043Z,99315.59
2022-09-17T10:20:23.871Z,99305.66
2022-09-17T10:24:36.396Z,99305.63
2022-09-17T10:28:44.088Z,99305.16
2022-09-17T10:33:05.295Z,99301.25
2022-09-17T10:37:26.618Z,99309.59
2022-09-17T10:41:27.874Z,99312.44
2022-09-17T10:45:30.799Z,99317.47
2022-09-17T10:49:32.043Z,99320.56
2022-09-17T10:53:46.264Z,99329.06
2022-09-17T10:57:54.734Z,99322.38
2022-09-17T11:02:08.362Z,99323.09
2022-09-17T11:06:28.537Z,99312.13
2022-09-17T11:10:55.472Z,99313.25
2022-09-17T11:15:03.359Z,99306.66
2022-09-17T11:19:23.573Z,99295.63
2022-09-17T11:23:46.724Z,99288.31
2022-09-17T11:27:48.158Z,99282.06
2022-09-17T11:31:52.754Z,99276.38
2022-09-17T11:36:08.349Z,99275.31
2022-09-17T11:40:19.322Z,99282.34
2022-09-17T11:44:30.211Z,99272.38
2022-09-17T11:49:04.088Z,99273.34
2022-09-17T11:53:08.457Z,99249.09
2022-09-17T11:57:15.173Z,99257.16
2022-09-17T12:01:44.356Z,99264.69
2022-09-17T12:05:54.388Z,99255.84
2022-09-17T12:10:03.320Z,99261.19
2022-09-17T12:14:09.728Z,99250.75
2022-09-17T12:18:31.253Z,99248.38
2022-09-17T12:22:42.404Z,99232.59
2022-09-17T12:27:00.685Z,99233.63
2022-09-17T12:31:07.114Z,99238.13
2022-09-17T12:36:02.481Z,99239.97
2022-09-17T12:40:16.393Z,99231.13
2022-09-17T12:44:17.639Z,99235.50
2022-09-17T12:48:21.997Z,99232.63
2022-09-17T12:52:23.249Z,99227.53
2022-09-17T12:56:31.303Z,99225.66
2022-09-17T13:00:48.901Z,99226.94
2022-09-17T13:05:14.777Z,99216.41
2022-09-17T13:09:34.469Z,99207.41
2022-09-17T13:13:42.005Z,99202.59
2022-09-17T13:18:12.775Z,99206.22
2022-09-17T13:22:19.141Z,99210.38
2022-09-17T13:26:22.104Z,99210.69
2022-09-17T13:30:23.441Z,99220.06
2022-09-17T13:34:32.225Z,99209.22
2022-09-17T13:38:41.893Z,99223.19
2022-09-17T13:42:46.488Z,99228.06
2022-09-17T13:46:48.359Z,99237.38
2022-09-17T13:50:50.204Z,99232.59
2022-09-17T13:54:52.502Z,99233.16
2022-09-17T13:58:53.939Z,99234.56
2022-09-17T14:02:55.340Z,99237.88
2022-09-17T14:06:59.518Z,99241.03
2022-09-17T14:11:02.185Z,99240.91
2022-09-17T14:15:03.775Z,99237.66
2022-09-17T14:19:23.943Z,99250.19
2022-09-17T14:23:27.575Z,99254.41
2022-09-17T14:27:43.362Z,99253.31
2022-09-17T14:31:47.383Z,99258.97
2022-09-17T14:36:02.426Z,99263.38
2022-09-17T14:40:09.908Z,99254.22
2022-09-17T14:44:18.129Z,99249.72
2022-09-17T14:48:31.006Z,99255.97
2022-09-17T14:52:32.920Z,99254.50
2022-09-17T14:56:47.332Z,99260.97
2022-09-17T15:00:51.752Z,99263.22
2022-09-17T15:04:53.378Z,99262.13
2022-09-17T15:08:57.301Z,99264.03
2022-09-17T15:12:59.407Z,99270.25
2022-09-17T15:17:09.541Z,99262.56
2022-09-17T15:21:31.193Z,99257.59
2022-09-17T15:25:33.476Z,99254.47
2022-09-17T15:29:41.477Z,99252.78
2022-09-17T15:33:50.343Z,99249.41
2022-09-17T15:42:24.221Z,99256.44
2022-09-17T15:46:33.596Z,99261.03
2022-09-17T15:50:36.225Z,99270.25
2022-09-17T15:54:44.550Z,99278.44
2022-09-17T15:58:46.002Z,99282.22
2022-09-17T16:02:47.542Z,99290.56
2022-09-17T16:06:51.525Z,99297.47
2022-09-17T16:10:59.833Z,99301.59
2022-09-17T16:15:01.565Z,99296.81
2022-09-17T16:19:03.795Z,99295.28
2022-09-17T16:23:05.146Z,99300.78
2022-09-17T16:27:13.489Z,99306.19
2022-09-17T16:31:15.166Z,99295.47
2022-09-17T16:35:24.424Z,99291.16
2022-09-17T16:39:25.713Z,99302.56
2022-09-17T16:43:27.126Z,99303.84
2022-09-17T16:47:30.581Z,99310.19
2022-09-17T16:51:31.870Z,99306.69
2022-09-17T16:55:33.386Z,99317.38
2022-09-17T16:59:34.649Z,99317.28
2022-09-17T17:03:43.473Z,99316.91
2022-09-17T17:07:44.763Z,99331.16
2022-09-17T17:11:52.453Z,99328.91
2022-09-17T17:15:53.960Z,99341.28
2022-09-17T17:19:55.865Z,99343.22
2022-09-17T17:23:57.209Z,99340.75
2022-09-17T17:27:59.189Z,99358.28
2022-09-17T17:32:00.623Z,99356.63
2022-09-17T17:36:07.610Z,99361.84
2022-09-17T17:40:16.720Z,99360.09
2022-09-17T17:44:18.085Z,99364.50
2022-09-17T17:48:19.384Z,99369.69
2022-09-17T17:52:27.506Z,99368.91
2022-09-17T17:56:28.829Z,99370.69
2022-09-17T18:00:30.172Z,99368.94
2022-09-17T18:04:31.409Z,99370.72
2022-09-17T18:08:32.781Z,99370.69
2022-09-17T18:12:34.509Z,99374.16
2022-09-17T18:16:42.602Z,99381.03
2022-09-17T18:20:44.053Z,99388.00
2022-09-17T18:24:45.436Z,99387.97
2022-09-17T18:28:47.651Z,99389.75
2022-09-17T18:32:55.529Z,99397.53
2022-09-17T18:36:56.936Z,99389.72
2022-09-17T18:41:04.815Z,99396.66
2022-09-17T18:45:06.683Z,99398.41
2022-09-17T18:49:08.381Z,99398.41
2022-09-17T18:53:09.697Z,99410.63
2022-09-17T18:57:17.505Z,99413.31
2022-09-17T19:01:20.504Z,99411.69
2022-09-17T19:05:21.835Z,99422.09
2022-09-17T19:09:29.686Z,99423.91
2022-09-17T19:13:35.313Z,99426.56
2022-09-17T19:17:36.618Z,99442.22
2022-09-17T19:21:37.893Z,99438.78
2022-09-17T19:25:39.415Z,99442.28
2022-09-17T19:29:40.693Z,99446.63
2022-09-17T19:33:42.208Z,99452.69
2022-09-17T19:37:43.550Z,99463.94
2022-09-17T19:41:44.957Z,99461.34
2022-09-17T19:45:46.229Z,99463.09
2022-09-17T19:49:50.818Z,99473.47
2022-09-17T19:53:52.632Z,99474.38
2022-09-17T19:57:53.923Z,99471.78
2022-09-17T20:02:01.590Z,99478.75
2022-09-17T20:06:10.520Z,99482.22
2022-09-17T20:10:18.607Z,99477.06
2022-09-17T20:14:26.539Z,99488.28
2022-09-17T20:18:28.320Z,99480.53
2022-09-17T20:22:29.782Z,99475.34
2022-09-17T20:26:31.430Z,99480.53
2022-09-17T20:30:39.626Z,99481.38
2022-09-17T20:34:47.588Z,99477.06
2022-09-17T20:43:10.595Z,99483.13
2022-09-17T20:47:11.887Z,99490.88
2022-09-17T20:51:15.909Z,99490.03
2022-09-17T20:55:17.995Z,99493.50
2022-09-17T20:59:19.624Z,99489.19
2022-09-17T21:03:22.977Z,99489.19
2022-09-17T21:07:30.537Z,99491.75
2022-09-17T21:11:31.849Z,99478.78
2022-09-17T21:15:33.345Z,99491.75
2022-09-17T21:19:35.150Z,99484.81
2022-09-17T21:23:36.972Z,99489.16
2022-09-17T21:27:38.460Z,99494.28
2022-09-17T21:31:40.066Z,99496.88
2022-09-17T21:35:41.567Z,99502.06
2022-09-17T21:39:43.063Z,99510.69
2022-09-17T21:43:44.573Z,99509.78
2022-09-17T21:47:52.775Z,99509.78
2022-09-17T21:52:00.665Z,99521.00
2022-09-17T21:56:03.691Z,99516.72
2022-09-17T22:00:07.628Z,99527.09
2022-09-17T22:04:16.532Z,99526.25
2022-09-17T22:08:21.102Z,99528.81
2022-09-17T22:12:29.522Z,99530.56
2022-09-17T22:16:32.884Z,99521.06
2022-09-17T22:20:34.747Z,99527.97
2022-09-17T22:24:36.086Z,99517.59
2022-09-17T22:28:43.708Z,99515.88
2022-09-17T22:32:51.626Z,99528.00
2022-09-17T22:36:53.041Z,99531.47
2022-09-17T22:41:00.822Z,99510.75
2022-09-17T22:45:02.376Z,99521.09
2022-09-17T22:49:03.644Z,99512.47
2022-09-17T22:53:04.945Z,99518.56
2022-09-17T22:57:06.521Z,99510.78
2022-09-17T23:01:11.213Z,99511.63
2022-09-17T23:05:12.568Z,99517.72
2022-09-17T23:09:14.169Z,99513.38
2022-09-17T23:13:15.920Z,99508.19
2022-09-17T23:17:17.349Z,99504.75
2022-09-17T23:21:19.354Z,99497.81
2022-09-17T23:25:20.741Z,99495.22
2022-09-17T23:29:22.198Z,99496.09
2022-09-17T23:33:24.022Z,99508.19
2022-09-17T23:37:25.359Z,99506.47
2022-09-17T23:41:28.133Z,99511.66
2022-09-17T23:45:29.486Z,99498.69
2022-09-17T23:49:30.961Z,99496.97
2022-09-17T23:53:32.990Z,99500.41
2022-09-17T23:57:34.402Z,99513.38
